Welcome, Guest
You have to register before you can post on our site.

Username/Email:
  

Password
  





Search Forums



(Advanced Search)

Forum Statistics
» Members: 1,141
» Latest member: eryjinu
» Forum threads: 590
» Forum posts: 3,567

Full Statistics

Online Users
There are currently 51 online users.
» 2 Member(s) | 49 Guest(s)
dirkw, jim321

Latest Threads
spaceX
Forum: General discussion
Last Post: jim321
12-16-2017, 11:32 AM
» Replies: 2
» Views: 75
oeSENC and OpenPlotter up...
Forum: General discussion
Last Post: monos
12-15-2017, 07:06 AM
» Replies: 6
» Views: 208
security cam
Forum: General discussion
Last Post: tocan
12-15-2017, 06:12 AM
» Replies: 2
» Views: 174
Introducing OpenPlotter h...
Forum: General discussion
Last Post: uriguri
12-13-2017, 04:26 PM
» Replies: 25
» Views: 3,002
How do I adjust screen lu...
Forum: How do I...?
Last Post: Littlechay
12-13-2017, 03:02 PM
» Replies: 4
» Views: 175
Still issues, with GPIO, ...
Forum: Bug Reports
Last Post: e-sailing
12-12-2017, 05:24 PM
» Replies: 4
» Views: 155
default connections in op...
Forum: Bug Reports
Last Post: PaddyB
12-10-2017, 05:19 AM
» Replies: 1
» Views: 92
AIS Antenna?
Forum: How do I...?
Last Post: Littlechay
12-09-2017, 05:53 PM
» Replies: 8
» Views: 292
A beginner can manage it!...
Forum: Brag Board
Last Post: Leigh
12-08-2017, 05:17 AM
» Replies: 10
» Views: 687
Ikommunicate kindle app o...
Forum: How do I...?
Last Post: SkipperEarly
12-07-2017, 05:16 PM
» Replies: 4
» Views: 179

 
  5v UPS
Posted by: PaddyB - 11-12-2017, 03:46 PM - Forum: General discussion - Replies (26)

Came across this youtube of a 5v UPS, might be of interest to a few on here..

https://www.youtube.com/watch?v=jecgoBqOrhk


  Fishfinder navman 4100 to Openplotter
Posted by: callmecalanca - 11-09-2017, 04:22 PM - Forum: How do I...? - Replies (2)

Hi,
I connected the white wire to the R+ of nmea to USB adapter, and the ground to R-
Added the adapter in the USB tab in Openplotter
Added in connection at 4800 baud in nemea tab in Openplotter
This is the output in inspector

Code:
!AIVDM,1,1,,A,35Qq340OiP0Gjp6HhuGiD1?h0000,0*43
!AIVDM,1,1,,A,13Hsc:500nPHCgpHhqQGonan05rd,0*0B
!AIVDM,1,1,,A,33K?WL001LPHM5THjugU`4P<00wP,0*7A
!AIVDM,1,1,,A,35Qq340OiQ0Gk1JHhvIQT1HB00vh,0*18
!AIVDM,1,1,,A,33K?WL001MPHM9rHju:Ue4PJ0000,0*58
!AIVDM,1,1,,A,13Hb=P00000HS>HHivRsqUvN0PR`,0*06
!AIVDM,1,1,,A,13Hsc:5P@vPHCc0HhpGGa6@V0<0T,0*64
!AIVDM,1,1,,A,33K?WL001LPHMIdHjrvElTW>011A,0*0F
!AIVDM,1,1,,A,13Hb=P00000HS>HHivRrn5wf0Urh,0*7C
!AIVDM,1,1,,A,33GhqR50P0PHSQfHj60JMF1l0Dg:,0*22
!AIVDM,1,1,,A,13Hb=P00000HS>HHivRsAUvL0d0p,0*72
!AIVDM,1,1,,A,13Hsc:5PB8PHD=pHhn@36RPV08;2,0*16
!AIVDM,1,1,,A,13?sSV002A0IoUjHU5Rll3pr08Bb,0*54
!AIVDM,1,1,,A,13Hb=P00000HS>JHivRiGEw80pDo,0*76
!AIVDM,1,1,,A,13Hsc:5PBkPHDibHhoRBKii>00SO,0*6B
!AIVDM,1,1,,A,13K?WL001OPHMtBHjmkEo4W>00Sp,0*26
!AIVDM,1,1,,A,13?sSV002A0IopRHU4JDpCoD05rl,0*0E
!AIVDM,1,1,,A,15Qq34001U0GlGrHi4aj;1UF00R@,0*5A
!AIVDM,1,1,,A,33Hsc:503LPHFedHhvsiui=>05s3,0*77
!AIVDM,1,1,,A,13K?WL001LPHNOlHjhWEj4U@0HHE,0*25
!AIVDM,1,1,,A,13?sSV002C0Iq>:HTwBlnCoB00SJ,0*4C
!AIVDM,2,1,4,A,55@@`D42??4o<Hhw@00m<>0l4LpTHT<40000000t4svBB6lg0C14VH13,0*1A
!AIVDM,2,2,4,A,hjh000000000000,2*7A
!AIVDM,1,1,,A,33K?WL001JPHNWBHjgQ5lTWb0000,0*5D
!AIVDM,1,1,,A,13Hb=P00000HS>JHivRspEwd0hOo,0*14
!AIVDM,1,1,,A,13Hsc:503RPHGIlHi2<1wQ?n0@Ra,0*72
!AIVDM,1,1,,A,33K?WL001JPHNb:Hjg5mj4Wl016Q,0*22
!AIVDM,1,1,,A,33K?WL001MPHNfdHjfJElT`<011@,0*3E
!AIVDM,1,1,,A,13Hb=P00000HS>JHivRrN5vL0Urt,0*69
!AIVDM,1,1,,A,13Hsc:503RPHH2<Hi4wj71BV00S0,0*05
!AIVDM,2,1,2,A,53Hsc:400000H4G?S3U0ThuB08t5B3;7F222220j0h61340Ht0000000,0*03
!AIVDM,2,2,2,A,000000000000000,2*26
!AIVDM,1,1,,A,13?sSV002D0Ir4>HTt84mCnT0D19,0*16
!AIVDM,1,1,,A,13K?WL001MPHNmvHjeBUlTVV0H<2,0*64
!AIVDM,1,1,,A,B3HOB:P0;P68kMV<GbLoswhUkP06,0*63
!AIVDM,1,1,,A,13Hb=P00000HS>JHivRs:5w80hDo,0*79
!AIVDM,1,1,,A,13Hsc:503LPHHevHi7gR;QE>0@Fh,0*13
!AIVDM,1,1,,A,13K?WL001MPHO1rHjcNUj4W@0D0S,0*27
!AIVDM,1,1,,A,B3HhAvP09p67tf6<EeSLswrUoP06,0*55
!AIVDM,1,1,,A,13Hsc:503NPHILfHi:LjCiMn0<0U,0*18
!AIVDM,1,1,,A,13Hb=P00000HS>JHivRon5vL0PSa,0*65
!AIVDM,1,1,,A,13Hsc:503MPHJ6bHi<rj;QDV0D0U,0*57
!AIVDM,1,1,,A,390woSU0000HRv2Hii5lvWL`0000,0*40
!AIVDM,1,1,,A,13Hb=P00000HS>LHivRm<Ew80d0o,0*6F
!AIVDM,1,1,,A,13Hsc:5OkKPHJi<Hi?bB>1O>0<0U,0*32
!AIVDM,1,1,,A,38K1oB5000PHKb4HkJJchaWJ0000,0*2E
!AIVDM,1,1,,A,13Hb=P00000HS>HHivRsG5wd0`Oo,0*59
!AIVDM,1,1,,A,6>jCL=@0RrWP>db20104000,0*1E
!AIVDM,1,1,,A,13Hsc:5PCFPHKMbHiBN221?n08Ra,0*2C
!AIVDM,1,1,,A,13@efR002@0GbN>Hc`wstq`80D1M,0*38
!AIVDM,1,1,,A,15Qq34001h0GoOhHiCMAfQ>600Rh,0*08
!AIVDM,1,1,,A,13Hb=P00000HS>JHivRu2UvN0d0n,0*19
!AIVDM,1,1,,A,13Hsc:5OkKPHL74HiDwj=iJV0@:p,0*41
!AIVDM,1,1,,A,33cs<m5000PHJ3pHk@>20IVT8Dv:,0*57
!AIVDM,1,1,,A,15Qq34001j0Goj>HiE=Qf1<f05s4,0*55
!AIVDM,2,1,6,A,53GhqR42:cmdI0tB220LU8th5@622222222222157ik=>6m5:>PBP@hj,0*24
!AIVDM,2,2,6,A,Cp8888888888880,2*11
!AIVDM,1,1,,A,13Hb=P00000HS>JHivRscmw80`Do,0*70
!AIVDM,1,1,,A,13Hsc:5PCIPHLk:HiGIB9AC>08Fh,0*62
!AIVDM,1,1,,A,33K?WL001BPHP7THjQDEj4W@00m1,0*76
!AIVDM,1,1,,A,33P7iu50000HRArHjG32f`K@0D`:,0*06
!AIVDM,1,1,,A,15Qq34001j0Gp4DHiFrifi=D08IT,0*36
!AIVDM,1,1,,A,33K?WL001?PHP:`HjPp5j4WL00w0,0*60
!AIVDM,1,1,,A,13Hb=P00000HS>JHivRt4mwd0Us4,0*25
!AIVDM,1,1,,A,13K?WL0017PHP@NHjOwmlTWn00SV,0*78
!AIVDM,1,1,,A,15Qq34001k0GpG0HiHfAe1:40@2b,0*1B
!AIVDM,1,1,,A,13Hb=P00000HS>JHivRmj5vN0`8k,0*30
!AIVDM,1,1,,A,33iVm65001PHQU8HjOS<77Nh0000,0*46
!AIVDM,1,1,,A,15Qq34001k0Gpb0HiJbQWQ<f00R@,0*1C
!AIVDM,1,1,,A,33HW7H00360H6W6Hj`HIG7jp01?h,0*13
!AIVDM,1,1,,A,13Hb=P00000HS>JHivRqNEw80Us8,0*22
!AIVDM,1,1,,A,13Hb=P00000HS>HHivRrv5wd0PSV,0*7C
!AIVDM,1,1,,A,33GhqR5000PHSQdHj60TIF1l0Dg:,0*5A
!AIVDM,2,1,3,A,53cs<m82C36LT98h0004T@50E8h400000000000t544HH6m40DhPDPiC,0*34
!AIVDM,2,2,3,A,3kP@00000000000,2*6F
!AIVDM,1,1,,A,15Qq34001l0Gq=rHiND1bQ<40<1N,0*43
!AIVDM,2,1,5,A,53P7iu42;CW8lMACH00ltqB1HDq@uEP00000001SA@e3F6mV0?U3S1kP,0*2E
!AIVDM,2,2,5,A,000000000000000,2*21
!AIVDM,1,1,,A,13Hb=P00000HS>FHivRtL5vN0Us<,0*2A
!AIVDM,1,1,,A,35Qq34001l0GqP>HiP;1aQ:d04f3,0*76
!AIVDM,1,1,,A,33K?WL0P@HPHP`bHjLQ5UT<l00vh,0*2E
!AIVDM,1,1,,A,33K?WL0P@GPHPanHjLH5S4520000,0*1A
!AIVDM,1,1,,A,3819?am000PHRU4HjM`IBDW>0DRJ,0*48
!AIVDM,1,1,,A,33K?WL0P@FPHPc8HjL@5FSs@00kA,0*2B
!AIVDM,1,1,,A,13Ghel0uh0PHM`fHk5e5u:?B2@HI,0*4B
!AIVDM,1,1,,A,15Qq34001k0GqjFHiR11b1;D00S=,0*44
!AIVDM,1,1,,A,33Ie6G8P@30HFo`HkSkb4b;L0121,0*0B
!AIVDM,1,1,,A,33K?WL0P@DPHPeRHjL3E<Scb0000,0*24
!AIVDM,1,1,,A,13Hb=P00000HS>DHivRr;mwf0pPC,0*51
!AIVDM,2,1,7,A,55Qq34420O4c<D8G>20<520<4l585B222222221:=h?6>6li0<1TSDTp,0*35
!AIVDM,2,2,7,A,888888888888880,2*23
!AIVDM,1,1,,A,33K?WL0P@CPHPfbHjKv4n3Un010i,0*73
!AIVDM,1,1,,A,15Qq34001k0Gr4`HiSn1bQ<4082b,0*40
!AIVDM,1,1,,A,33K?WL0P@BPHPgpHjKpE03L<00tP,0*7F
!AIVDM,1,1,,A,33P<Qs50000HRVLHjRvGl4T@0P00,0*30
!AIVDM,1,1,,A,33K?WL0P@FPHPiFHjKilpSFJ0000,0*0B
!AIVDM,1,1,,A,13Hb=P00000HS>FHivRq=UvN0PRg,0*41
!AIVDM,1,1,,A,13Hsc:5OiGPHQv>HiQp4FSFV05s@,0*14
!AIVDM,1,1,,A,33K?WL0P@CPHPjDHjKeU:3@V00ui,0*16
!AIVDM,1,1,,A,13Ghel0vh0PHM`bHk5gEvb>d2@=E,0*3B
!AIVDM,1,1,,A,33K?WL0P@>PHPkDHjKalkS:l00vP,0*1C
!AIVDM,1,1,,A,33K?WL0P@<PHPl6HjKV52S720000,0*29
!AIVDM,1,1,,A,13Hb=P00000HS>HHivRpD5w60pDK,0*34
!AIVDM,1,1,,A,33K?WL0004PHPlLHjKTU533@00oA,0*16
!AIVDM,1,1,,A,15Qq34001i0Gr`nHiWQAaQ=D0HIW,0*1F
!AIVDM,1,1,,A,33K?WL0P@5PHPlNHjKRVk31L00t0,0*3A

These are my settings

[Image: 3fa1fbd2aeb91acf4fb54ccd6130fe79.jpg]

How can I have deep in signal k instrument panel?


  Dual XGPS150 not recognized
Posted by: Alexhl - 11-07-2017, 11:10 PM - Forum: How do I...? - Replies (1)

This is the last part of my Navigation setup. I am able to connect to the Gps through Blutooth but then I get a message that says "there is nothing on this device that can be used". The switch on the XGPS is set for Android devices. There must be something else I am missing.  It connects right up on my IPad. Any help appreciated.
Alex


  EPsolar/ tracer SignalK
Posted by: ddelorme - 11-05-2017, 04:06 PM - Forum: General discussion - Replies (6)

Hi,
I am working on a python app that reads data from a epsolar tracer mppt unit and puts the data into signalK.

data can be displayed in node-red or signalK diagnostics in OP
would this be of interest to any one else?


  More text options for mqtt?
Posted by: PaddyB - 11-05-2017, 12:51 PM - Forum: Feature Requests - No Replies

Would it be possible to allow some more character options for MQTT topics? It seems to be becoming normal to use "/" in topics for a sort of drill down of topics - something  like "boat/battery/mainbank/volts". 

Ta


  Esp8266 - esp easy
Posted by: PaddyB - 11-05-2017, 12:48 PM - Forum: General discussion - Replies (19)

Anyone else had a play with esp easy and an Esp8266?  Looks very promising. 
Confession time first, I zapped the i2c & 1wire pins on a Pi3 yesterday in under the chart table trying to tidy up the wiring for some DS18 thermometers, a B180 barometer and a ADS115 voltage sensor, one wrong move with what shouldn't have been a live wire but was to the batts and that was that - tiny spark and pins gone, at least the Pi still mostly works. 

So plan B, leave the Pi safe and sound tucked away then send everything via wifi. Esps are dead cheap -  Google came up with Espeasy.
https://www.letscontrolit.com/wiki/index.php/ESPEasy

Up and running quite quickly, brief overview -
Download some software, plug the Esp into a laptop and run an install program which loads new firmware onto the esp, log onto the new Esp hotspot - a web page appers where you can connect to a network like openplotter. Log on to that network and the Esp creates a website where it's easy to connect hardware, send MQTT/UDP etc, loads of options. 
So after not too much head scratching now we have a cheapo Esp8266 reading voltage and temperature then sending it out over mqtt. Openplotter turns it into signalk in the mqtt tab. 

Looks very promising so far, multiplexing serial data with serial - TTL adaptors next, I had that working just with a basic sketch before so here's hoping! Cool


  Daisy Hat AIS, no Bluetooth
Posted by: Alexhl - 11-04-2017, 04:51 PM - Forum: How do I...? - Replies (3)

I just installed the Daisy Hat AIS in my RPi3 and ran the UART control shell. Rebooted and now my Bluetooth is disabled [Image: dodgy.png]. I have a Dual Bluetooth GPS receiver that I would like to use. What can I do?
Thanks, Alex


  USB NMEA 0813 Converter
Posted by: GrumpyCy - 11-04-2017, 04:12 AM - Forum: How do I...? - No Replies

Hi

I've been using OP for a year now, mostly for sending AIS data to my laptop plotter, it's been brilliant. Now I would like to start using more of the capabilities.

I would like to get data from both my depth sounder (made by autohelm) and my wind instrument (nasa). Do I need one usb dongle for each or do I pair up the wires into the appropriate terminals on the device?

I'm sorry if this is obvious (or the information is elsewhere, I've not been able to find out).

Thanks for your help (I hope).

Cy

Sent from my Swift 2 using Tapatalk


  Connecting to cable modem
Posted by: Alexhl - 11-03-2017, 03:26 PM - Forum: How do I...? - Replies (3)

This is a newby question. I just upgraded to a pi3 and NOOB 10. I cannot figure out how to connect to my home WiFi modem to connect to the internet? I had no trouble with the pi2. Should it not be obvious? What am I missing? Thanks


  arduino on I2C
Posted by: Sprokkie - 11-02-2017, 05:38 PM - Forum: General discussion - Replies (23)

Hi,

is it possible to connect an arduino on i2C with openplotter te get values from sensors connected to the arduino in openplotter ?

if no

what would be a better or the corect solution for connecting arduino to openplotter ?